Time;durP1;ratioP1;P1;durP2;ratioP2;P2;SDS_P1;SDS_P2;PMS_P1;PMS_P2;Temp;Humidity;BMP_temperature;BMP_pressure;BME280_temperature;BME280_humidity;BME280_pressure;Samples;Min_cycle;Max_cycle;Signal;HPM_P1;HPM_P2
2021/05/19 00:00:09;;;;;;;5.15;3.80;;;;;;;10.09;69.19;97250.44;5079612;28;20610;-85
2021/05/19 00:02:36;;;;;;;4.72;3.35;;;;;;;10.10;69.48;97243.41;5048769;28;20414;-84
2021/05/19 00:05:04;;;;;;;5.88;4.32;;;;;;;10.09;69.46;97253.03;5054481;28;20123;-84
2021/05/19 00:07:31;;;;;;;5.18;3.85;;;;;;;10.06;69.18;97244.91;5057267;28;20028;-84
2021/05/19 00:09:59;;;;;;;4.75;3.58;;;;;;;10.00;69.47;97238.06;5090999;28;20426;-84
2021/05/19 00:12:28;;;;;;;5.40;3.65;;;;;;;9.98;69.26;97235.69;5091197;28;20462;-84
2021/05/19 00:14:55;;;;;;;3.88;3.10;;;;;;;9.91;69.54;97238.47;5073895;28;20039;-84
2021/05/19 00:17:22;;;;;;;5.95;3.78;;;;;;;9.82;69.09;97229.50;5074218;28;20054;-84
2021/05/19 00:19:49;;;;;;;6.32;4.28;;;;;;;9.80;69.48;97236.75;5074209;28;20043;-84
2021/05/19 00:22:16;;;;;;;5.63;4.20;;;;;;;9.75;69.51;97234.06;5073266;28;20039;-84
2021/05/19 00:24:43;;;;;;;6.40;4.22;;;;;;;9.71;69.80;97230.34;5067608;28;20067;-84
2021/05/19 00:27:10;;;;;;;7.30;5.25;;;;;;;9.67;69.50;97237.84;5067839;28;20024;-84
2021/05/19 00:29:39;;;;;;;5.53;4.00;;;;;;;9.53;69.58;97232.16;5069875;28;20028;-84
2021/05/19 00:32:07;;;;;;;5.68;4.20;;;;;;;9.51;69.52;97238.59;5061173;28;20040;-84
2021/05/19 00:34:34;;;;;;;6.82;4.25;;;;;;;9.34;69.69;97212.63;5077628;28;20032;-83
2021/05/19 00:37:04;;;;;;;5.95;4.25;;;;;;;9.47;69.80;97227.91;5077965;28;20032;-84
2021/05/19 00:39:31;;;;;;;6.90;5.00;;;;;;;9.47;69.48;97232.31;5061417;28;20114;-84
2021/05/19 00:41:58;;;;;;;7.35;5.18;;;;;;;9.43;69.90;97218.22;5077343;28;20031;-84
2021/05/19 00:44:25;;;;;;;7.18;5.60;;;;;;;9.55;70.21;97224.91;5060683;28;20424;-84
2021/05/19 00:46:52;;;;;;;8.32;5.88;;;;;;;9.53;70.35;97226.19;5076044;28;20368;-84
2021/05/19 00:49:19;;;;;;;8.13;5.50;;;;;;;9.45;70.40;97209.16;5060878;28;20052;-84
2021/05/19 00:51:46;;;;;;;7.57;5.53;;;;;;;9.53;70.33;97228.78;5077503;28;20024;-84
2021/05/19 00:54:13;;;;;;;6.88;5.55;;;;;;;9.53;70.08;97232.16;5060579;28;20085;-84
2021/05/19 00:56:41;;;;;;;7.13;4.97;;;;;;;9.43;70.39;97226.81;5076246;28;20031;-84
2021/05/19 00:59:10;;;;;;;6.65;5.28;;;;;;;9.34;70.61;97234.19;5068287;28;20047;-84
2021/05/19 01:01:39;;;;;;;6.78;4.90;;;;;;;9.38;70.03;97227.50;5073601;28;20461;-84
2021/05/19 01:04:06;;;;;;;8.02;5.35;;;;;;;9.43;70.29;97231.22;5072750;28;20051;-84
2021/05/19 01:06:58;;;;;;;7.35;4.90;;;;;;;9.37;70.04;97227.72;5076806;28;20031;-85
2021/05/19 01:09:36;;;;;;;6.38;4.68;;;;;;;9.32;70.34;97220.66;5096415;28;20039;-84
2021/05/19 01:12:14;;;;;;;6.45;4.90;;;;;;;9.31;69.94;97229.47;5079590;28;20567;-84
2021/05/19 01:14:42;;;;;;;6.78;5.38;;;;;;;9.22;70.09;97230.88;5060797;28;20028;-84
2021/05/19 01:17:10;;;;;;;5.97;4.55;;;;;;;9.19;69.94;97231.34;5068930;28;20080;-84
2021/05/19 01:19:40;;;;;;;6.95;5.18;;;;;;;9.05;70.29;97230.84;5059997;28;20119;-84
2021/05/19 01:22:20;;;;;;;7.25;5.18;;;;;;;8.93;70.21;97228.28;5089866;28;20081;-84
2021/05/19 01:24:48;;;;;;;7.35;5.55;;;;;;;9.01;70.24;97224.53;5056387;28;20494;-84
2021/05/19 01:27:16;;;;;;;6.03;4.68;;;;;;;8.99;69.99;97222.16;5078858;28;20047;-84
2021/05/19 01:29:47;;;;;;;6.72;4.85;;;;;;;8.83;70.34;97237.72;5084068;28;20481;-84
2021/05/19 01:32:14;;;;;;;7.90;5.25;;;;;;;8.94;70.53;97229.84;5058832;28;20038;-84
2021/05/19 01:34:41;;;;;;;7.25;5.22;;;;;;;8.99;70.46;97231.75;5058962;28;20051;-85
2021/05/19 01:37:11;;;;;;;8.27;5.00;;;;;;;8.89;70.70;97224.56;5075867;28;20027;-84
2021/05/19 01:39:39;;;;;;;6.80;5.43;;;;;;;9.07;70.46;97231.41;5071745;28;20032;-85
2021/05/19 01:42:06;;;;;;;7.82;5.32;;;;;;;9.09;70.83;97226.75;5058863;28;20057;-85
2021/05/19 01:44:33;;;;;;;7.45;5.43;;;;;;;9.09;70.65;97226.75;5075069;28;20084;-84
2021/05/19 01:47:02;;;;;;;7.18;5.00;;;;;;;9.06;70.48;97232.41;5058645;28;20036;-85
2021/05/19 01:49:30;;;;;;;7.55;5.07;;;;;;;9.01;70.34;97229.72;5075338;28;20050;-85
2021/05/19 01:52:01;;;;;;;7.03;4.78;;;;;;;8.90;70.32;97233.94;5057789;28;20134;-85
2021/05/19 01:54:31;;;;;;;6.57;5.05;;;;;;;8.90;70.35;97239.13;5071341;28;20347;-85
2021/05/19 01:56:58;;;;;;;6.85;5.28;;;;;;;8.91;70.52;97224.34;5059676;28;20020;-84
2021/05/19 01:59:24;;;;;;;6.55;4.93;;;;;;;8.89;70.73;97228.97;5073084;28;20080;-85
2021/05/19 02:01:50;;;;;;;8.50;5.95;;;;;;;8.83;70.87;97227.31;5075094;28;20483;-84
2021/05/19 02:04:17;;;;;;;8.57;6.20;;;;;;;8.84;71.21;97239.28;5075635;28;20055;-84
2021/05/19 02:06:44;;;;;;;9.60;5.95;;;;;;;8.93;71.07;97240.50;5058952;28;20027;-84
2021/05/19 02:09:11;;;;;;;8.23;6.03;;;;;;;8.95;71.75;97243.66;5092042;28;20104;-84
2021/05/19 02:11:39;;;;;;;9.02;6.65;;;;;;;8.99;71.56;97242.94;5075211;28;20059;-84
2021/05/19 02:14:06;;;;;;;10.52;6.25;;;;;;;9.00;71.54;97243.75;5076979;28;20172;-84
2021/05/19 02:16:33;;;;;;;11.13;6.90;;;;;;;9.06;71.50;97237.59;5089189;28;20028;-84
2021/05/19 02:19:00;;;;;;;10.10;6.18;;;;;;;9.17;71.21;97249.75;5060243;28;20031;-85
2021/05/19 02:21:27;;;;;;;10.30;6.38;;;;;;;9.22;71.18;97249.06;5076099;28;20032;-84
2021/05/19 02:23:55;;;;;;;10.63;6.30;;;;;;;9.35;71.16;97255.78;5059656;28;20046;-85
2021/05/19 02:26:22;;;;;;;10.80;7.07;;;;;;;9.35;71.18;97234.97;5057227;28;20032;-85
2021/05/19 02:28:49;;;;;;;12.15;7.10;;;;;;;9.45;71.17;97240.34;5076159;28;20319;-85
2021/05/19 02:31:16;;;;;;;12.90;7.93;;;;;;;9.48;71.14;97241.69;5070533;28;20071;-85
2021/05/19 02:33:43;;;;;;;12.75;8.55;;;;;;;9.49;71.23;97235.47;5076217;28;20048;-85
2021/05/19 02:36:10;;;;;;;12.95;7.93;;;;;;;9.53;71.15;97239.19;5076296;28;20035;-84
2021/05/19 02:38:38;;;;;;;11.95;7.95;;;;;;;9.51;71.04;97234.22;5056985;28;20465;-84
2021/05/19 02:41:05;;;;;;;15.13;8.57;;;;;;;9.53;70.84;97236.59;5074167;28;20028;-84
2021/05/19 02:43:32;;;;;;;14.55;8.00;;;;;;;9.46;71.13;97239.34;5053718;28;20028;-85
2021/05/19 02:46:01;;;;;;;13.05;8.55;;;;;;;9.53;71.11;97234.75;5075483;28;20509;-85
2021/05/19 02:48:28;;;;;;;14.52;8.77;;;;;;;9.53;71.44;97234.75;5075641;28;20031;-85
2021/05/19 02:50:55;;;;;;;14.70;9.40;;;;;;;9.57;70.69;97235.84;5057077;28;20316;-84
2021/05/19 02:53:22;;;;;;;13.13;7.72;;;;;;;9.67;70.87;97239.66;5074672;28;20023;-84
2021/05/19 02:55:49;;;;;;;12.30;8.75;;;;;;;9.66;70.89;97235.47;5075705;28;20398;-84
2021/05/19 02:58:16;;;;;;;12.63;8.50;;;;;;;9.79;70.84;97244.78;5085479;28;20027;-84
2021/05/19 03:00:43;;;;;;;13.68;8.95;;;;;;;9.78;71.01;97245.78;5056913;28;20024;-84
2021/05/19 03:03:10;;;;;;;16.17;9.68;;;;;;;9.80;69.94;97247.16;5090939;28;20115;-84
2021/05/19 03:05:39;;;;;;;13.60;9.35;;;;;;;9.86;70.44;97248.78;5075271;28;20047;-84
2021/05/19 03:08:06;;;;;;;15.50;10.30;;;;;;;9.83;70.35;97245.88;5075107;28;20039;-84
2021/05/19 03:10:36;;;;;;;15.32;9.32;;;;;;;9.82;70.87;97258.09;5058912;28;20023;-84
2021/05/19 03:13:04;;;;;;;16.35;9.95;;;;;;;9.78;70.91;97258.78;5110363;28;20027;-84
2021/05/19 03:15:31;;;;;;;16.23;10.27;;;;;;;9.86;70.45;97246.19;5074824;28;20076;-84
2021/05/19 03:17:59;;;;;;;12.95;9.30;;;;;;;9.85;70.60;97249.81;5056484;28;20024;-85
2021/05/19 03:20:27;;;;;;;15.23;9.63;;;;;;;9.94;70.64;97258.78;5075564;28;20035;-85
2021/05/19 03:22:54;;;;;;;15.73;9.45;;;;;;;9.89;70.39;97258.72;5058063;28;20027;-85
2021/05/19 03:25:21;;;;;;;16.35;10.63;;;;;;;9.85;70.45;97262.84;5092407;28;20023;-84
2021/05/19 03:27:47;;;;;;;14.77;8.88;;;;;;;9.92;70.22;97255.66;5075427;28;20537;-84
2021/05/19 03:30:17;;;;;;;17.60;9.75;;;;;;;9.90;70.20;97270.72;5072568;28;20023;-84
2021/05/19 03:32:44;;;;;;;14.15;9.10;;;;;;;10.00;70.32;97277.06;5063677;28;20030;-85
2021/05/19 03:35:12;;;;;;;15.65;9.20;;;;;;;9.96;69.89;97268.19;5073049;28;20225;-84
2021/05/19 03:37:45;;;;;;;16.33;9.38;;;;;;;9.92;70.06;97268.66;5075330;28;20038;-84
2021/05/19 03:40:14;;;;;;;15.50;9.32;;;;;;;9.99;70.14;97280.69;5058406;28;20165;-84
2021/05/19 03:42:44;;;;;;;14.75;9.55;;;;;;;10.05;70.22;97277.16;5091303;28;20028;-84
2021/05/19 03:45:14;;;;;;;17.35;9.73;;;;;;;9.95;69.73;97269.97;5075691;28;20032;-84
2021/05/19 03:47:42;;;;;;;17.85;10.18;;;;;;;10.03;70.11;97277.38;5057432;28;20153;-84
2021/05/19 03:50:10;;;;;;;16.00;9.65;;;;;;;10.03;69.71;97277.38;5075312;28;20035;-84
2021/05/19 03:52:37;;;;;;;14.50;8.60;;;;;;;10.10;69.99;97285.81;5090841;28;20326;-84
2021/05/19 03:55:05;;;;;;;15.65;9.30;;;;;;;10.03;70.35;97284.41;5092277;28;20038;-84
2021/05/19 03:57:32;;;;;;;15.52;8.57;;;;;;;10.01;70.51;97292.44;5091619;28;20479;-84
2021/05/19 04:00:00;;;;;;;17.85;9.70;;;;;;;10.02;70.12;97290.63;5074596;28;20502;-84
2021/05/19 04:02:27;;;;;;;16.35;9.98;;;;;;;10.00;70.08;97297.88;5074658;28;20027;-84
2021/05/19 04:04:54;;;;;;;14.50;8.80;;;;;;;10.00;70.13;97290.09;5075342;28;20073;-84
2021/05/19 04:07:21;;;;;;;16.15;10.52;;;;;;;10.03;70.41;97297.41;5062658;28;20445;-83
2021/05/19 04:09:47;;;;;;;15.25;8.73;;;;;;;10.00;70.39;97297.88;5060949;28;20395;-83
2021/05/19 04:12:14;;;;;;;16.10;9.15;;;;;;;9.98;70.49;97299.94;5078526;28;20031;-84
2021/05/19 04:14:41;;;;;;;17.70;9.40;;;;;;;10.01;69.77;97292.44;5095950;28;20034;-84
2021/05/19 04:17:09;;;;;;;18.35;8.73;;;;;;;9.99;70.24;97301.50;5069354;28;20114;-84
2021/05/19 04:19:36;;;;;;;17.80;9.30;;;;;;;9.97;70.47;97303.56;5062165;28;20031;-84
2021/05/19 04:22:03;;;;;;;13.82;8.13;;;;;;;10.02;70.62;97301.03;5095018;28;20031;-84
2021/05/19 04:24:30;;;;;;;15.88;9.18;;;;;;;10.02;70.67;97296.59;5059019;28;20135;-83
2021/05/19 04:27:00;;;;;;;20.50;9.80;;;;;;;10.06;70.62;97296.94;5074067;28;20024;-84
2021/05/19 04:29:26;;;;;;;29.38;9.63;;;;;;;10.04;71.10;97293.78;5079102;28;20028;-84
2021/05/19 04:31:53;;;;;;;16.60;8.88;;;;;;;10.12;70.38;97304.56;5078066;28;20019;-84
2021/05/19 04:34:21;;;;;;;24.77;8.82;;;;;;;10.06;70.63;97302.16;5086621;28;20122;-84
2021/05/19 04:36:48;;;;;;;14.95;8.85;;;;;;;10.07;70.50;97301.09;5095277;28;20407;-84
2021/05/19 04:39:15;;;;;;;29.50;9.27;;;;;;;10.03;70.85;97297.41;5079381;28;20032;-84
2021/05/19 04:41:42;;;;;;;17.88;9.00;;;;;;;10.13;70.90;97298.34;5078009;28;20034;-84
2021/05/19 04:44:09;;;;;;;19.17;8.88;;;;;;;10.17;70.38;97300.47;5061592;28;20084;-84
2021/05/19 04:46:38;;;;;;;16.05;8.65;;;;;;;10.19;70.56;97307.00;5094914;28;20102;-83
2021/05/19 04:49:05;;;;;;;21.42;11.02;;;;;;;10.25;70.18;97310.50;5078829;28;20027;-83
2021/05/19 04:51:32;;;;;;;20.73;9.43;;;;;;;10.21;70.01;97312.78;5095218;28;20404;-82
2021/05/19 04:53:59;;;;;;;15.38;8.38;;;;;;;10.21;69.92;97289.38;5070739;28;20081;-83
2021/05/19 04:56:26;;;;;;;22.00;10.55;;;;;;;10.23;70.45;97297.72;5061312;28;20066;-83
2021/05/19 04:58:53;;;;;;;16.40;8.25;;;;;;;10.29;70.12;97301.16;5071333;28;20028;-83
2021/05/19 05:01:20;;;;;;;19.05;10.13;;;;;;;10.42;69.60;97320.91;5059635;28;20055;-83
2021/05/19 05:03:47;;;;;;;31.02;10.52;;;;;;;10.35;70.27;97320.28;5056797;28;20028;-83
2021/05/19 05:06:14;;;;;;;22.27;11.30;;;;;;;10.46;70.66;97312.38;5076369;28;20027;-84
2021/05/19 05:08:41;;;;;;;28.20;11.85;;;;;;;10.49;69.86;97314.50;5111603;28;20054;-83
2021/05/19 05:11:08;;;;;;;19.20;9.70;;;;;;;10.51;69.95;97316.88;5076430;28;20102;-84
2021/05/19 05:13:35;;;;;;;25.05;12.25;;;;;;;10.53;69.79;97324.44;5070774;28;20028;-83
2021/05/19 05:16:02;;;;;;;26.33;10.95;;;;;;;10.59;69.57;97320.84;5076019;28;20301;-83
2021/05/19 05:18:39;;;;;;;21.77;10.38;;;;;;;10.39;70.11;97326.59;5076242;28;20541;-83
2021/05/19 05:21:06;;;;;;;26.30;11.38;;;;;;;10.61;69.90;97330.03;5053654;28;20024;-83
2021/05/19 05:23:33;;;;;;;23.77;11.65;;;;;;;10.61;69.39;97334.44;5059380;28;20557;-83
2021/05/19 05:26:01;;;;;;;22.80;11.55;;;;;;;10.59;69.55;97332.06;5074325;28;20072;-83
2021/05/19 05:28:28;;;;;;;28.67;12.18;;;;;;;10.63;69.31;97335.78;5055127;28;20102;-83
2021/05/19 05:30:55;;;;;;;22.83;11.75;;;;;;;10.64;69.99;97339.16;5072918;28;20112;-83
2021/05/19 05:33:23;;;;;;;22.98;11.05;;;;;;;10.65;69.20;97330.31;5094963;28;20509;-83
2021/05/19 05:35:50;;;;;;;21.65;12.27;;;;;;;10.65;69.14;97331.09;5078506;28;20027;-83
2021/05/19 05:38:17;;;;;;;27.95;13.05;;;;;;;10.67;68.95;97338.69;5095409;28;20059;-83
2021/05/19 05:40:44;;;;;;;24.38;11.38;;;;;;;10.65;69.78;97343.34;5057765;28;20390;-82
2021/05/19 05:43:12;;;;;;;23.08;11.68;;;;;;;10.68;69.51;97340.25;5093512;28;20020;-83
2021/05/19 05:45:40;;;;;;;19.88;11.05;;;;;;;10.65;70.00;97343.34;5074009;28;20107;-83
2021/05/19 05:48:13;;;;;;;22.52;11.35;;;;;;;10.63;69.61;97340.19;5077640;28;20027;-82
2021/05/19 05:50:40;;;;;;;24.15;11.95;;;;;;;10.74;69.30;97343.72;5061675;28;20024;-83
2021/05/19 05:53:06;;;;;;;20.58;11.43;;;;;;;10.79;69.58;97341.94;5074128;28;20625;-83
2021/05/19 05:55:33;;;;;;;22.73;11.32;;;;;;;10.63;70.28;97338.38;5060499;28;20027;-83
2021/05/19 05:58:00;;;;;;;22.33;12.82;;;;;;;10.80;69.72;97348.75;5094257;28;20055;-83
2021/05/19 06:00:28;;;;;;;24.77;13.10;;;;;;;10.86;69.39;97339.97;5073923;28;20489;-82
2021/05/19 06:02:55;;;;;;;23.80;12.65;;;;;;;10.92;69.11;97348.63;5062622;28;20173;-82
2021/05/19 06:05:28;;;;;;;23.73;12.65;;;;;;;10.95;69.75;97355.16;5073273;28;20451;-83
2021/05/19 06:07:55;;;;;;;23.33;12.82;;;;;;;10.94;69.93;97349.19;5071414;28;20032;-82
2021/05/19 06:10:21;;;;;;;24.35;13.63;;;;;;;11.04;69.95;97359.72;5076724;28;20063;-82
2021/05/19 06:12:49;;;;;;;26.70;14.25;;;;;;;11.04;69.93;97358.94;5093682;28;20288;-82
2021/05/19 06:15:16;;;;;;;24.63;13.93;;;;;;;11.07;69.21;97358.47;5094182;28;20543;-82
2021/05/19 06:17:43;;;;;;;24.45;12.63;;;;;;;11.11;69.12;97358.78;5076143;28;20043;-82
2021/05/19 06:20:11;;;;;;;26.20;13.45;;;;;;;11.11;69.59;97359.53;5073699;28;20020;-82
2021/05/19 06:22:38;;;;;;;26.05;14.30;;;;;;;11.14;69.55;97359.06;5075296;28;20368;-82
2021/05/19 06:25:06;;;;;;;23.05;13.82;;;;;;;11.19;69.69;97359.13;5076312;28;20482;-82
2021/05/19 06:27:33;;;;;;;25.45;13.43;;;;;;;11.20;69.58;97367.72;5072152;28;20063;-82
2021/05/19 06:30:00;;;;;;;24.55;14.18;;;;;;;11.20;70.07;97368.50;5088275;28;20039;-82
2021/05/19 06:32:27;;;;;;;24.88;13.85;;;;;;;11.19;70.04;97366.13;5071989;28;20375;-82
2021/05/19 06:34:54;;;;;;;22.52;13.05;;;;;;;11.39;69.76;97378.63;5061696;28;20539;-82
2021/05/19 06:37:21;;;;;;;22.73;13.05;;;;;;;11.37;69.33;97375.47;5072068;28;20036;-82
2021/05/19 06:39:48;;;;;;;24.70;14.15;;;;;;;11.36;69.11;97379.91;5074850;28;20035;-82
2021/05/19 06:42:15;;;;;;;23.23;14.05;;;;;;;11.35;69.07;97386.16;5065493;28;20089;-82
2021/05/19 06:44:42;;;;;;;26.33;13.88;;;;;;;11.36;68.85;97381.72;5087086;28;20391;-82
2021/05/19 06:47:09;;;;;;;24.95;14.15;;;;;;;11.35;69.37;97373.09;5091958;28;20486;-82
2021/05/19 06:49:36;;;;;;;22.90;12.63;;;;;;;11.51;68.44;97378.50;5054758;28;20024;-81
2021/05/19 06:52:04;;;;;;;21.42;12.07;;;;;;;11.51;68.42;97386.31;5069497;28;20501;-81
2021/05/19 06:54:31;;;;;;;21.15;12.45;;;;;;;11.54;68.45;97383.22;5053534;28;20114;-81
2021/05/19 06:56:58;;;;;;;19.42;11.70;;;;;;;11.55;68.03;97384.78;5072279;28;20055;-81
2021/05/19 06:59:25;;;;;;;22.30;12.90;;;;;;;11.59;68.59;97391.88;5090377;28;20417;-81
2021/05/19 07:01:52;;;;;;;22.25;12.65;;;;;;;11.59;68.55;97389.28;5074126;28;20538;-82
2021/05/19 07:04:20;;;;;;;21.30;12.15;;;;;;;11.48;68.53;97389.41;5054228;28;20034;-82
2021/05/19 07:06:48;;;;;;;23.02;13.30;;;;;;;11.55;68.88;97393.41;5056108;28;20036;-81
2021/05/19 07:09:15;;;;;;;24.40;12.98;;;;;;;11.55;68.47;97396.03;5068593;28;20035;-81
2021/05/19 07:11:42;;;;;;;21.40;11.85;;;;;;;11.69;67.62;97401.63;5091167;28;20047;-82
2021/05/19 07:14:15;;;;;;;24.10;12.70;;;;;;;11.68;67.91;97394.84;5074121;28;20513;-82
2021/05/19 07:16:49;;;;;;;22.10;12.85;;;;;;;11.67;68.50;97408.94;5072441;28;20024;-83
2021/05/19 07:19:16;;;;;;;23.13;12.82;;;;;;;11.76;68.02;97399.63;5090355;28;20027;-81
2021/05/19 07:21:43;;;;;;;24.15;13.55;;;;;;;11.81;68.54;97406.72;5073907;28;20386;-82
2021/05/19 07:24:12;;;;;;;21.40;13.90;;;;;;;12.03;67.73;97419.75;5053341;28;20027;-82
2021/05/19 07:26:42;;;;;;;20.95;11.80;;;;;;;12.02;67.47;97418.16;5085101;28;20542;-81
2021/05/19 07:29:09;;;;;;;22.63;12.98;;;;;;;12.08;67.95;97419.78;5073103;28;20028;-81
2021/05/19 07:31:36;;;;;;;20.33;12.43;;;;;;;12.16;66.16;97414.09;5073436;28;20039;-81
2021/05/19 07:34:04;;;;;;;20.55;11.68;;;;;;;12.19;66.47;97412.81;5052064;28;20024;-81
2021/05/19 07:36:31;;;;;;;21.50;11.73;;;;;;;12.26;68.30;97417.84;5091923;28;20080;-82
2021/05/19 07:39:02;;;;;;;21.05;11.65;;;;;;;12.29;67.78;97415.50;5108770;28;20039;-82
2021/05/19 07:41:29;;;;;;;20.80;11.75;;;;;;;12.47;67.13;97413.56;5043653;28;20047;-82
2021/05/19 07:43:56;;;;;;;16.67;10.93;;;;;;;12.64;66.48;97418.63;5090694;28;20039;-81
2021/05/19 07:46:23;;;;;;;19.67;11.27;;;;;;;12.92;67.25;97420.13;5067937;28;20024;-81
2021/05/19 07:48:50;;;;;;;16.60;10.05;;;;;;;13.40;64.23;97423.50;5059588;28;20028;-81
2021/05/19 07:51:17;;;;;;;15.95;10.00;;;;;;;13.78;61.84;97420.75;5057342;28;20323;-81
2021/05/19 07:53:44;;;;;;;17.17;10.00;;;;;;;13.99;60.68;97411.88;5089653;28;20110;-81
2021/05/19 07:58:52;;;;;;;14.93;9.27;;;;;;;14.61;59.08;97414.53;5086352;28;20428;-80
2021/05/19 08:01:42;;;;;;;14.02;8.60;;;;;;;14.82;57.42;97396.91;5076376;28;20031;-81
2021/05/19 08:04:10;;;;;;;14.45;9.50;;;;;;;15.21;56.50;97406.75;5096439;28;20076;-80
2021/05/19 08:06:37;;;;;;;13.50;8.23;;;;;;;15.55;56.38;97406.09;5065030;28;20076;-80
2021/05/19 08:09:05;;;;;;;16.70;9.13;;;;;;;15.39;54.46;97413.25;5074608;28;20130;-80
2021/05/19 08:11:34;;;;;;;14.68;9.23;;;;;;;15.28;55.15;97417.75;5073777;28;20118;-80
2021/05/19 08:14:01;;;;;;;11.63;7.97;;;;;;;15.36;53.97;97416.41;5060248;28;20035;-80
2021/05/19 08:16:28;;;;;;;11.77;7.35;;;;;;;15.73;52.91;97413.34;5075149;28;20485;-80
2021/05/19 08:18:55;;;;;;;12.40;7.72;;;;;;;15.98;51.66;97419.53;5058334;28;20109;-80
2021/05/19 08:21:23;;;;;;;11.85;7.72;;;;;;;15.90;53.03;97415.66;5057138;28;20031;-80
2021/05/19 08:23:50;;;;;;;12.07;8.45;;;;;;;16.21;51.94;97414.63;5069241;28;20036;-78
2021/05/19 08:26:17;;;;;;;11.02;6.78;;;;;;;16.44;53.66;97415.78;5075616;28;20399;-79
2021/05/19 08:28:46;;;;;;;10.10;6.18;;;;;;;16.67;50.24;97415.03;5072388;28;20052;-79
2021/05/19 08:31:13;;;;;;;10.80;6.93;;;;;;;16.70;49.20;97412.91;5068806;28;20030;-79
2021/05/19 08:33:43;;;;;;;10.32;5.97;;;;;;;16.52;51.27;97412.56;5071215;28;20031;-78
2021/05/19 08:36:12;;;;;;;10.65;6.32;;;;;;;16.78;50.44;97413.09;5091992;28;20032;-79
2021/05/19 08:38:42;;;;;;;9.85;5.85;;;;;;;16.85;50.90;97418.06;5071263;28;20070;-79
2021/05/19 08:41:09;;;;;;;9.23;5.57;;;;;;;17.08;51.00;97413.06;5056015;28;20039;-79
2021/05/19 08:43:37;;;;;;;9.65;6.45;;;;;;;17.22;50.42;97408.69;5057984;28;20077;-78
2021/05/19 08:46:10;;;;;;;9.55;5.45;;;;;;;17.42;50.04;97408.44;5071679;28;20080;-78
2021/05/19 08:48:38;;;;;;;10.88;6.15;;;;;;;17.66;50.04;97404.19;5072506;28;20470;-79
2021/05/19 08:51:05;;;;;;;6.40;4.90;;;;;;;17.98;46.11;97400.88;5054056;28;20497;-79
2021/05/19 08:53:33;;;;;;;8.32;5.72;;;;;;;17.81;47.55;97406.63;5084204;28;20041;-79
2021/05/19 08:56:10;;;;;;;7.47;5.22;;;;;;;17.58;46.19;97400.34;5092104;28;20063;-78
2021/05/19 08:58:37;;;;;;;7.82;5.13;;;;;;;17.52;49.06;97397.00;5075867;28;20378;-79
2021/05/19 09:01:04;;;;;;;6.18;4.60;;;;;;;17.59;45.80;97399.28;5074982;28;20296;-78
2021/05/19 09:03:36;;;;;;;7.50;4.43;;;;;;;17.54;48.81;97391.47;5091491;28;20040;-79
2021/05/19 09:06:10;;;;;;;7.65;4.63;;;;;;;17.65;45.39;97397.34;5072797;28;20054;-79
2021/05/19 09:08:38;;;;;;;5.22;3.83;;;;;;;17.86;45.61;97408.41;5058100;28;20023;-79
2021/05/19 09:11:10;;;;;;;6.10;4.32;;;;;;;18.10;46.08;97409.13;5072075;28;20062;-79
2021/05/19 09:13:42;;;;;;;6.03;3.73;;;;;;;18.22;44.82;97394.72;5058346;28;20024;-78
2021/05/19 09:16:14;;;;;;;7.22;4.45;;;;;;;18.58;46.20;97394.13;5070947;28;20051;-79
2021/05/19 09:18:50;;;;;;;7.28;4.32;;;;;;;18.49;46.66;97392.16;5073432;28;20432;-79
2021/05/19 09:21:39;;;;;;;7.20;3.55;;;;;;;18.72;46.11;97394.91;5089474;28;20020;-79
2021/05/19 09:24:10;;;;;;;6.55;3.50;;;;;;;19.06;44.88;97393.78;5073651;28;20027;-79
2021/05/19 09:26:56;;;;;;;6.47;4.22;;;;;;;18.75;45.69;97396.19;5059413;28;20024;-79
2021/05/19 09:29:27;;;;;;;4.60;3.70;;;;;;;19.52;42.00;97387.56;5066007;28;20036;-79
2021/05/19 09:32:02;;;;;;;5.10;3.42;;;;;;;19.97;40.59;97390.28;5054290;28;20346;-79
2021/05/19 09:34:32;;;;;;;3.95;3.13;;;;;;;19.78;43.36;97376.47;5070533;28;20486;-79
2021/05/19 09:37:18;;;;;;;6.68;3.53;;;;;;;19.14;44.99;97377.28;5063804;28;20376;-79
2021/05/19 09:39:47;;;;;;;5.57;2.92;;;;;;;18.95;44.49;97368.66;5054990;28;20032;-78
2021/05/19 09:42:18;;;;;;;6.13;2.88;;;;;;;19.04;41.81;97369.56;5054317;28;20402;-79
2021/05/19 09:44:47;;;;;;;5.93;3.33;;;;;;;18.76;44.19;97361.59;5054227;28;20035;-79
2021/05/19 09:47:34;;;;;;;4.13;2.80;;;;;;;18.89;44.85;97373.28;5090245;28;20095;-79
2021/05/19 09:50:01;;;;;;;4.47;2.60;;;;;;;19.10;42.08;97365.72;5072528;28;20028;-80
2021/05/19 09:52:28;;;;;;;3.33;2.42;;;;;;;19.25;41.74;97368.06;5089563;28;20180;-79
2021/05/19 09:55:03;;;;;;;3.30;2.58;;;;;;;18.40;42.16;97364.09;5109079;28;20209;-79
2021/05/19 09:57:43;;;;;;;3.80;2.65;;;;;;;18.15;41.00;97356.34;5074060;28;20490;-80
2021/05/19 10:00:13;;;;;;;3.78;2.38;;;;;;;18.28;44.28;97354.00;5065529;28;20709;-79
2021/05/19 10:02:44;;;;;;;3.95;2.67;;;;;;;18.90;45.06;97358.97;5069885;28;20256;-79
2021/05/19 10:05:18;;;;;;;3.47;2.15;;;;;;;19.79;41.23;97356.88;5053491;28;20066;-77
2021/05/19 10:07:44;;;;;;;4.90;2.28;;;;;;;20.16;37.72;97347.81;5053278;28;20065;-76
2021/05/19 10:10:11;;;;;;;3.92;1.80;;;;;;;19.95;38.22;97352.81;5089643;28;20383;-77
2021/05/19 10:12:40;;;;;;;2.88;1.52;;;;;;;19.43;37.32;97339.16;5067018;28;20036;-78
2021/05/19 10:15:13;;;;;;;3.35;1.63;;;;;;;19.45;35.57;97334.41;5084771;28;20036;-79
2021/05/19 10:17:44;;;;;;;5.40;1.60;;;;;;;19.33;38.44;97329.63;5070290;28;20408;-79
2021/05/19 10:20:16;;;;;;;3.42;2.10;;;;;;;19.51;40.40;97330.53;5071641;28;20127;-79
2021/05/19 10:22:48;;;;;;;2.70;1.80;;;;;;;19.23;38.04;97325.34;5071819;28;20070;-79
2021/05/19 10:25:49;;;;;;;4.68;2.30;;;;;;;19.14;38.49;97324.50;5066534;27;20023;-79
2021/05/19 10:28:19;;;;;;;3.10;1.80;;;;;;;19.33;38.50;97323.53;5069476;28;20123;-79
2021/05/19 10:30:47;;;;;;;2.53;2.05;;;;;;;18.85;39.13;97328.22;5048901;28;20027;-79
2021/05/19 10:33:30;;;;;;;2.22;1.52;;;;;;;18.41;39.98;97326.91;5089890;28;20356;-80
2021/05/19 10:35:58;;;;;;;2.55;1.50;;;;;;;18.24;41.32;97316.91;5107959;28;20565;-79
2021/05/19 10:38:33;;;;;;;3.08;1.90;;;;;;;18.42;39.98;97312.66;5073295;28;20034;-79
2021/05/19 10:41:04;;;;;;;2.33;2.05;;;;;;;18.85;38.51;97314.22;5066051;28;20031;-79
2021/05/19 10:43:53;;;;;;;3.22;2.28;;;;;;;19.12;36.78;97302.09;5071536;28;20028;-78
2021/05/19 10:46:45;;;;;;;3.08;1.95;;;;;;;19.13;36.17;97301.78;5053572;28;20480;-78
2021/05/19 10:49:12;;;;;;;5.45;2.35;;;;;;;19.02;36.49;97300.44;5103481;28;20088;-76
2021/05/19 10:51:43;;;;;;;3.47;2.33;;;;;;;19.21;35.70;97301.09;5055013;28;20057;-77
2021/05/19 11:00:24;;;;;;;4.05;2.38;;;;;;;19.69;37.64;97293.69;5085278;28;20039;-77
2021/05/19 11:05:21;;;;;;;5.72;2.35;;;;;;;19.37;36.40;97300.78;5101440;28;20110;-77
2021/05/19 11:08:20;;;;;;;3.15;1.33;;;;;;;19.12;33.84;97296.81;5056348;28;20418;-77
2021/05/19 11:10:49;;;;;;;4.05;1.67;;;;;;;18.88;37.27;97292.53;5043026;28;20051;-78
2021/05/19 11:13:24;;;;;;;3.25;1.90;;;;;;;18.82;35.51;97291.88;5069367;28;20024;-77
2021/05/19 11:21:01;;;;;;;4.60;2.28;;;;;;;19.22;38.21;97289.44;5092562;28;20041;-77
2021/05/19 11:23:28;;;;;;;4.68;1.80;;;;;;;19.91;39.25;97282.34;5075744;28;20035;-77
2021/05/19 11:26:12;;;;;;;3.28;1.90;;;;;;;19.63;36.79;97277.97;5066362;28;20063;-79
2021/05/19 11:28:40;;;;;;;2.40;1.38;;;;;;;19.79;37.98;97278.44;5070777;28;20434;-79
2021/05/19 11:31:14;;;;;;;7.53;2.22;;;;;;;19.53;38.23;97269.50;5071714;28;20082;-79
2021/05/19 11:33:53;;;;;;;3.78;1.20;;;;;;;19.48;39.04;97274.91;5069044;28;20036;-77
2021/05/19 11:36:32;;;;;;;3.60;1.13;;;;;;;18.92;38.73;97276.91;5077454;28;20040;-76
2021/05/19 11:39:02;;;;;;;3.35;1.10;;;;;;;19.07;38.05;97279.22;5078408;28;20305;-77
2021/05/19 11:41:29;;;;;;;3.72;1.00;;;;;;;18.99;37.52;97280.72;5066025;28;20032;-77
2021/05/19 11:43:56;;;;;;;1.95;0.98;;;;;;;18.44;38.02;97283.34;5087126;28;20102;-76
2021/05/19 11:46:23;;;;;;;2.63;1.00;;;;;;;17.32;41.38;97300.66;5072923;28;20118;-79
2021/05/19 11:48:51;;;;;;;1.25;0.70;;;;;;;17.12;44.01;97309.63;5069595;28;20475;-78
2021/05/19 11:51:22;;;;;;;3.25;1.10;;;;;;;16.80;46.82;97318.91;5073294;28;20065;-78
2021/05/19 11:54:01;;;;;;;2.90;0.90;;;;;;;16.39;50.74;97310.69;5068429;28;20050;-79